Webcam Meteoipassi more information Webcam Meteoipassi


Pisa torre orologio more information Pisa torre orologio


altri nostri siti meteo:

Pomeziameteo 1Sito sul meteo

Pomeziameteo DashboardSito sul meteo

Caput FrigorisSito sul meteo

BarcellonameteoSito sul meteo

MeteoipassiSito sul meteo

ViterbometeoSito sul meteo

MeteotortoretoSito sul meteo

TortoretometeolidoSito sul meteo

MeteoGonzagaSito sul meteo



Nessuna attenzione particolare richiesta.    Non ci sono allerte meteo

Report METAR

   
LIRQ - Firenze
Dati ricevuti: May 19 2019 10:50 pm
Parzialmente nuvoloso  
Parzialmente nuvoloso  
   Vento: S 11.1 km/h
Vento: S 11.1 km/h
Temperatura: 14°C
P.to Rugiada: 11°C
Umidita: 82%
Barometro: 1006 hPa
Nuvole: Parzialmente nuvoloso
Visibilita: oltre 10 km
dettagli cloud: Poche nuvole 914.4 m,
Parzialmente nuvoloso 1981.2 m
LIRQ 192050Z 21006KT 9999 FEW030 SCT065 14/11 Q1006
LIRP - Lucca
Dati ricevuti: May 19 2019 10:45 pm
Pioggia leggera, Molto nuvoloso  
Pioggia leggera, Molto nuvoloso  
   Vento: Variabile 1.9 km/h
Vento: Variabile 1.9 km/h
Temperatura: 13°C
P.to Rugiada: 12°C
Umidita: 94%
Barometro: 1006 hPa
Nuvole: Molto nuvoloso
Visibilita: 7 km
dettagli cloud: Parzialmente nuvoloso 304.8 m,
Molto nuvoloso 1219.2 m
LIRP 192045Z VRB01KT 7000 -RA SCT010 BKN040 13/12 Q1006 TEMPO 5000 RA
LIRP - Livorno
Dati ricevuti: May 19 2019 10:45 pm
Pioggia leggera, Molto nuvoloso  
Pioggia leggera, Molto nuvoloso  
   Vento: Variabile 1.9 km/h
Vento: Variabile 1.9 km/h
Temperatura: 13°C
P.to Rugiada: 12°C
Umidita: 94%
Barometro: 1006 hPa
Nuvole: Molto nuvoloso
Visibilita: 7 km
dettagli cloud: Parzialmente nuvoloso 304.8 m,
Molto nuvoloso 1219.2 m
LIRP 192045Z VRB01KT 7000 -RA SCT010 BKN040 13/12 Q1006 TEMPO 5000 RA
LIMP - Parma
Dati ricevuti: May 19 2019 8:50 pm
DATI Obsoleti
Pioggia leggera, Nebbia, Molto nuvoloso  
Pioggia leggera, Nebbia, Molto nuvoloso  
   Vento: NE 3.7 km/h
Vento: NE 3.7 km/h
Temperatura: 13°C
P.to Rugiada: 13°C
Umidita: 100%
Barometro: 1005 hPa
Nuvole: Molto nuvoloso
Visibilita: 2 km
dettagli cloud: Parzialmente nuvoloso 243.8 m,
Molto nuvoloso 609.6 m
LIMP 191850Z 07002KT 2000 -RA BR SCT008 BKN020 13/13 Q1005
LIRF - Roma
Dati ricevuti: May 19 2019 10:50 pm
Pioggia leggera, Parzialmente nuvoloso  
Pioggia leggera, Parzialmente nuvoloso  
   Vento: SW 16.7 km/h<br />Gust to 16.7 km/h
Vento: SW 16.7 km/h
Gust to 16.7 km/h
Temperatura: 14°C
P.to Rugiada: 13°C
Umidita: 94%
Barometro: 1008 hPa
Nuvole: Parzialmente nuvoloso
Visibilita: oltre 10 km
dettagli cloud: Parzialmente nuvoloso 609.6 m,
Parzialmente nuvoloso 1066.8 m
LIRF 192050Z 22009G29KT 140V270 9999 -RA SCT020 SCT035 14/13 Q1008 RESHRA NOSIG
 

Script sviluppato da  Saratoga-weather.org Adattato per il modello da  Weerstation Leuven

Potete trovare le nostre info meteo anche a:

European Weather Network

Weather Underground

AWEKAS

HAMweather, WeatherForYou, PWS Weather

Strumentazione usata:

Stazione meteo
Oregon Scientific WMR88

Programma gestore dati meteo
WVIEW

Server per i dati meteo
WDS-5

Provider
Anemos WDS-5

Oregon Scientific WMR88

WVIEW

WDS-5

Anemos WDS-5